createdAt,value
2022-12-28T00:03:54.207Z,-72.00
2022-12-28T00:09:01.436Z,-72.00
2022-12-28T00:14:08.781Z,-108.00
2022-12-28T00:19:15.868Z,-36.00
2022-12-28T00:24:23.061Z,-72.00
2022-12-28T00:29:30.330Z,-108.00
2022-12-28T00:34:37.445Z,-72.00
2022-12-28T00:39:44.653Z,-72.00
2022-12-28T00:44:51.909Z,-72.00
2022-12-28T00:49:59.081Z,-72.00
2022-12-28T00:55:06.344Z,-72.00
2022-12-28T01:00:13.636Z,-72.00
2022-12-28T01:05:20.809Z,-72.00
2022-12-28T01:10:27.985Z,-72.00
2022-12-28T01:15:35.214Z,-72.00
2022-12-28T01:20:42.434Z,-72.00
2022-12-28T01:25:49.615Z,-72.00
2022-12-28T01:30:56.843Z,-72.00
2022-12-28T01:36:04.009Z,-108.00
2022-12-28T01:41:11.330Z,-72.00
2022-12-28T01:46:18.585Z,-72.00
2022-12-28T01:51:25.791Z,-72.00
2022-12-28T01:56:33.013Z,-72.00
2022-12-28T02:01:40.372Z,-72.00
2022-12-28T02:06:47.463Z,-72.00
2022-12-28T02:11:54.750Z,-72.00
2022-12-28T02:17:02.059Z,-108.00
2022-12-28T02:22:09.172Z,-72.00
2022-12-28T02:27:16.400Z,-72.00
2022-12-28T02:32:23.648Z,-72.00
2022-12-28T02:37:30.883Z,-72.00
2022-12-28T02:42:38.104Z,-108.00
2022-12-28T02:47:45.325Z,-72.00
2022-12-28T02:52:52.494Z,-72.00
2022-12-28T02:57:59.740Z,-72.00
2022-12-28T03:03:07.142Z,-72.00
2022-12-28T03:08:14.205Z,-72.00
2022-12-28T03:13:21.511Z,-72.00
2022-12-28T03:18:28.797Z,-72.00
2022-12-28T03:23:35.960Z,-72.00
2022-12-28T03:28:43.126Z,-72.00
2022-12-28T03:33:50.391Z,-72.00
2022-12-28T03:38:57.555Z,-72.00
2022-12-28T03:44:04.765Z,-72.00
2022-12-28T03:49:11.944Z,-72.00
2022-12-28T03:54:19.167Z,-72.00
2022-12-28T03:59:26.427Z,-72.00
2022-12-28T04:04:33.693Z,-72.00
2022-12-28T04:09:40.888Z,-72.00
2022-12-28T04:14:48.125Z,-108.00
2022-12-28T04:19:55.378Z,-72.00
2022-12-28T04:25:02.613Z,-72.00
2022-12-28T04:30:09.816Z,-72.00
2022-12-28T04:35:17.067Z,-72.00
2022-12-28T04:40:24.270Z,-72.00
2022-12-28T04:45:31.496Z,-72.00
2022-12-28T04:50:38.789Z,-72.00
2022-12-28T04:55:46.026Z,-72.00
2022-12-28T05:00:53.296Z,-72.00
2022-12-28T05:06:00.445Z,-72.00
2022-12-28T05:11:07.673Z,-72.00
2022-12-28T05:16:14.926Z,-72.00
2022-12-28T05:21:22.180Z,-72.00
2022-12-28T05:26:29.509Z,-72.00
2022-12-28T05:31:36.652Z,-72.00
2022-12-28T05:36:43.774Z,-72.00
2022-12-28T05:41:50.956Z,-72.00
2022-12-28T05:46:58.183Z,-72.00
2022-12-28T05:52:05.354Z,-72.00
2022-12-28T05:57:12.595Z,-72.00
2022-12-28T06:02:24.573Z,-72.00
2022-12-28T06:07:27.038Z,-72.00
2022-12-28T06:12:34.203Z,-72.00
2022-12-28T06:17:41.390Z,-72.00
2022-12-28T06:22:48.624Z,-72.00
2022-12-28T06:27:55.834Z,-72.00
2022-12-28T06:33:02.995Z,-72.00
2022-12-28T06:38:10.237Z,-72.00
2022-12-28T06:43:17.428Z,-72.00
2022-12-28T06:48:24.646Z,-72.00
2022-12-28T06:53:31.850Z,-72.00
2022-12-28T06:58:39.041Z,-108.00
2022-12-28T07:03:46.284Z,-72.00
2022-12-28T07:08:53.466Z,-72.00
2022-12-28T07:14:00.844Z,-36.00
2022-12-28T07:19:08.060Z,-36.00
2022-12-28T07:24:15.233Z,-36.00
2022-12-28T07:29:22.357Z,-36.00
2022-12-28T07:34:29.585Z,0.00
2022-12-28T07:39:36.831Z,0.00
2022-12-28T07:44:48.788Z,-36.00
2022-12-28T07:49:51.229Z,0.00
2022-12-28T07:54:58.402Z,0.00
2022-12-28T08:00:05.549Z,72.00
2022-12-28T08:05:12.805Z,36.00
2022-12-28T08:10:20.080Z,36.00
2022-12-28T08:15:27.288Z,0.00
2022-12-28T08:20:34.411Z,72.00
2022-12-28T08:25:41.680Z,72.00
2022-12-28T08:30:48.865Z,108.00
2022-12-28T08:35:56.093Z,108.00
2022-12-28T08:41:03.457Z,144.00
2022-12-28T08:46:10.842Z,144.00
2022-12-28T08:51:17.854Z,180.00
2022-12-28T08:56:25.075Z,144.00
2022-12-28T09:01:37.304Z,144.00
2022-12-28T09:06:39.509Z,180.00
2022-12-28T09:11:46.776Z,180.00
2022-12-28T09:16:54.101Z,144.00
2022-12-28T09:22:01.261Z,108.00
2022-12-28T09:27:08.506Z,13500.00
2022-12-28T09:32:15.709Z,14292.00
2022-12-28T09:37:22.950Z,13752.00
2022-12-28T09:42:30.210Z,11988.00
2022-12-28T09:47:37.410Z,12816.00
2022-12-28T09:52:49.489Z,12600.00
2022-12-28T09:57:51.831Z,12276.00
2022-12-28T10:02:59.065Z,14256.00
2022-12-28T10:08:06.261Z,14760.00
2022-12-28T10:13:45.551Z,15768.00
2022-12-28T10:18:20.714Z,17604.00
2022-12-28T10:23:27.871Z,17748.00
2022-12-28T10:28:35.081Z,17172.00
2022-12-28T10:33:42.284Z,17208.00
2022-12-28T10:38:49.547Z,16056.00
2022-12-28T10:44:29.429Z,17064.00
2022-12-28T10:49:03.953Z,16128.00
2022-12-28T10:54:11.158Z,15012.00
2022-12-28T10:59:18.393Z,16344.00
2022-12-28T11:04:25.590Z,15588.00
2022-12-28T11:09:32.782Z,16056.00
2022-12-28T11:14:40.006Z,12384.00
2022-12-28T11:19:47.192Z,13788.00
2022-12-28T11:24:54.458Z,12924.00
2022-12-28T11:30:01.795Z,12852.00
2022-12-28T11:35:08.908Z,13536.00
2022-12-28T11:40:16.217Z,14148.00
2022-12-28T11:45:23.413Z,14616.00
2022-12-28T11:50:30.595Z,15516.00
2022-12-28T11:55:37.812Z,15336.00
2022-12-28T12:00:45.014Z,13968.00
2022-12-28T12:05:52.196Z,13680.00
2022-12-28T12:10:59.401Z,13824.00
2022-12-28T12:16:06.633Z,14040.00
2022-12-28T12:21:16.214Z,13932.00
2022-12-28T12:26:21.073Z,13824.00
2022-12-28T12:31:28.272Z,13176.00
2022-12-28T12:36:35.460Z,11016.00
2022-12-28T12:41:42.683Z,12096.00
2022-12-28T12:46:49.906Z,11556.00
2022-12-28T12:51:57.099Z,11952.00
2022-12-28T12:57:04.346Z,10836.00
2022-12-28T13:02:11.874Z,11232.00
2022-12-28T13:07:18.778Z,10548.00
2022-12-28T13:12:26.043Z,10224.00
2022-12-28T13:17:33.224Z,10512.00
2022-12-28T13:22:40.390Z,10836.00
2022-12-28T13:27:47.551Z,10656.00
2022-12-28T13:32:55.010Z,10836.00
2022-12-28T13:38:02.232Z,11232.00
2022-12-28T13:43:09.434Z,10836.00
2022-12-28T13:48:16.628Z,10872.00
2022-12-28T13:53:23.822Z,11376.00
2022-12-28T13:58:31.017Z,10044.00
2022-12-28T14:03:41.384Z,8532.00
2022-12-28T14:08:45.460Z,8784.00
2022-12-28T14:13:52.647Z,8208.00
2022-12-28T14:18:59.889Z,8064.00
2022-12-28T14:24:07.091Z,9000.00
2022-12-28T14:29:14.252Z,8424.00
2022-12-28T14:34:21.491Z,7164.00
2022-12-28T14:39:28.658Z,6768.00
2022-12-28T14:44:35.876Z,6552.00
2022-12-28T14:49:43.119Z,6660.00
2022-12-28T14:54:50.289Z,6804.00
2022-12-28T14:59:57.505Z,6156.00
2022-12-28T15:05:04.712Z,4896.00
2022-12-28T15:10:11.917Z,3672.00
2022-12-28T15:15:19.127Z,3204.00
2022-12-28T15:20:26.389Z,2772.00
2022-12-28T15:25:33.532Z,2196.00
2022-12-28T15:30:40.731Z,1656.00
2022-12-28T15:35:47.976Z,1080.00
2022-12-28T15:40:55.199Z,720.00
2022-12-28T15:46:02.445Z,504.00
2022-12-28T15:51:09.763Z,180.00
2022-12-28T15:56:16.909Z,36.00
2022-12-28T16:01:24.233Z,0.00
2022-12-28T16:06:31.324Z,-36.00
2022-12-28T16:11:38.505Z,-72.00
2022-12-28T16:16:45.770Z,-72.00
2022-12-28T16:21:53.001Z,-108.00
2022-12-28T16:27:00.146Z,-72.00
2022-12-28T16:32:07.476Z,-72.00
2022-12-28T16:37:14.592Z,-72.00
2022-12-28T16:42:21.829Z,-72.00
2022-12-28T16:47:28.999Z,-72.00
2022-12-28T16:52:36.227Z,-72.00
2022-12-28T16:57:43.412Z,-72.00
2022-12-28T17:02:50.715Z,-108.00
2022-12-28T17:07:57.853Z,-108.00
2022-12-28T17:13:05.001Z,-72.00
2022-12-28T17:18:12.240Z,-72.00
2022-12-28T17:23:19.472Z,-72.00
2022-12-28T17:28:26.713Z,-72.00
2022-12-28T17:33:38.911Z,-72.00
2022-12-28T17:38:41.204Z,-72.00
2022-12-28T17:43:48.406Z,-72.00
2022-12-28T17:48:55.605Z,-72.00
2022-12-28T17:54:02.795Z,-72.00
2022-12-28T17:59:10.186Z,-72.00
2022-12-28T18:04:17.403Z,-72.00
2022-12-28T18:09:27.973Z,-72.00
2022-12-28T18:14:31.832Z,-72.00
2022-12-28T18:19:38.985Z,-108.00
2022-12-28T18:24:46.164Z,-36.00
2022-12-28T18:29:53.350Z,-72.00
2022-12-28T18:35:00.517Z,-72.00
2022-12-28T18:40:07.744Z,-72.00
2022-12-28T18:45:15.221Z,-108.00
2022-12-28T18:50:22.630Z,-72.00
2022-12-28T18:55:29.890Z,-72.00
2022-12-28T19:00:37.367Z,-72.00
2022-12-28T19:05:44.956Z,-72.00
2022-12-28T19:10:52.530Z,-108.00
2022-12-28T19:15:59.925Z,1188.00
2022-12-28T19:21:07.054Z,1260.00
2022-12-28T19:26:14.319Z,8820.00
2022-12-28T19:31:21.570Z,8964.00
2022-12-28T19:36:28.720Z,8856.00
2022-12-28T19:41:35.932Z,8928.00
2022-12-28T19:46:43.181Z,8964.00
2022-12-28T19:51:50.336Z,9000.00
2022-12-28T19:56:57.543Z,8964.00
2022-12-28T20:02:04.799Z,9108.00
2022-12-28T20:07:12.236Z,8928.00
2022-12-28T20:12:19.900Z,8640.00
2022-12-28T20:17:27.387Z,8712.00
2022-12-28T20:22:34.687Z,8388.00
2022-12-28T20:27:41.899Z,8676.00
2022-12-28T20:32:49.049Z,8316.00
2022-12-28T20:37:56.316Z,8316.00
2022-12-28T20:43:03.515Z,8208.00
2022-12-28T20:48:10.756Z,8244.00
2022-12-28T20:53:18.312Z,8568.00
2022-12-28T20:58:25.642Z,8568.00
2022-12-28T21:03:33.239Z,8424.00
2022-12-28T21:08:40.535Z,8388.00
2022-12-28T21:13:47.785Z,8280.00
2022-12-28T21:18:55.166Z,8352.00
2022-12-28T21:24:02.471Z,8100.00
2022-12-28T21:29:09.996Z,8208.00
2022-12-28T21:34:17.583Z,8100.00
2022-12-28T21:39:24.952Z,8244.00
2022-12-28T21:44:32.179Z,7668.00
2022-12-28T21:49:39.316Z,7452.00
2022-12-28T21:54:46.522Z,7740.00
2022-12-28T21:59:53.746Z,8928.00
2022-12-28T22:05:03.232Z,7668.00
2022-12-28T22:10:08.118Z,1656.00
2022-12-28T22:15:15.309Z,576.00
2022-12-28T22:20:22.543Z,576.00
2022-12-28T22:25:29.742Z,396.00
2022-12-28T22:30:37.002Z,2952.00
2022-12-28T22:35:44.142Z,4392.00
2022-12-28T22:40:51.325Z,4212.00
2022-12-28T22:45:58.619Z,4536.00
2022-12-28T22:51:05.780Z,4212.00
2022-12-28T22:56:13.022Z,4248.00
2022-12-28T23:01:20.362Z,4392.00
2022-12-28T23:06:27.472Z,4536.00
2022-12-28T23:11:34.713Z,5328.00
2022-12-28T23:16:42.055Z,5184.00
2022-12-28T23:21:49.202Z,5292.00
2022-12-28T23:26:56.433Z,5328.00
2022-12-28T23:32:03.641Z,5292.00
2022-12-28T23:37:10.837Z,5292.00
2022-12-28T23:42:18.031Z,5040.00
2022-12-28T23:47:25.297Z,5112.00
2022-12-28T23:52:32.526Z,5544.00
2022-12-28T23:57:39.751Z,5652.00
